sensor_id;sensor_type;location;lat;lon;timestamp;P1;durP1;ratioP1;P2;durP2;ratioP2
78430;SDS011;67727;50.236;22.452;2024-02-28T00:00:29;47.80;;;25.10;;
78430;SDS011;67727;50.236;22.452;2024-02-28T00:03:16;46.30;;;22.80;;
78430;SDS011;67727;50.236;22.452;2024-02-28T00:05:43;44.90;;;23.90;;
78430;SDS011;67727;50.236;22.452;2024-02-28T00:08:12;47.30;;;23.60;;
78430;SDS011;67727;50.236;22.452;2024-02-28T00:10:39;44.50;;;24.10;;
78430;SDS011;67727;50.236;22.452;2024-02-28T00:13:06;45.00;;;25.20;;
78430;SDS011;67727;50.236;22.452;2024-02-28T00:15:33;45.20;;;23.20;;
78430;SDS011;67727;50.236;22.452;2024-02-28T00:18:00;42.30;;;22.50;;
78430;SDS011;67727;50.236;22.452;2024-02-28T00:20:27;48.90;;;25.20;;
78430;SDS011;67727;50.236;22.452;2024-02-28T00:22:55;49.80;;;23.40;;
78430;SDS011;67727;50.236;22.452;2024-02-28T00:25:22;48.30;;;26.40;;
78430;SDS011;67727;50.236;22.452;2024-02-28T00:27:49;48.70;;;25.00;;
78430;SDS011;67727;50.236;22.452;2024-02-28T00:30:17;47.80;;;26.30;;
78430;SDS011;67727;50.236;22.452;2024-02-28T00:32:44;51.40;;;25.30;;
78430;SDS011;67727;50.236;22.452;2024-02-28T00:35:11;49.40;;;25.90;;
78430;SDS011;67727;50.236;22.452;2024-02-28T00:37:37;49.70;;;24.90;;
78430;SDS011;67727;50.236;22.452;2024-02-28T00:40:05;50.90;;;26.30;;
78430;SDS011;67727;50.236;22.452;2024-02-28T00:42:32;48.90;;;25.30;;
78430;SDS011;67727;50.236;22.452;2024-02-28T00:44:59;51.30;;;26.00;;
78430;SDS011;67727;50.236;22.452;2024-02-28T00:47:26;49.10;;;25.10;;
78430;SDS011;67727;50.236;22.452;2024-02-28T00:49:53;48.00;;;25.10;;
78430;SDS011;67727;50.236;22.452;2024-02-28T00:52:20;53.30;;;26.40;;
78430;SDS011;67727;50.236;22.452;2024-02-28T00:54:47;49.60;;;25.10;;
78430;SDS011;67727;50.236;22.452;2024-02-28T00:57:14;50.10;;;26.40;;
78430;SDS011;67727;50.236;22.452;2024-02-28T00:59:41;51.90;;;28.30;;
78430;SDS011;67727;50.236;22.452;2024-02-28T01:04:35;55.50;;;25.30;;
78430;SDS011;67727;50.236;22.452;2024-02-28T01:07:02;51.20;;;26.90;;
78430;SDS011;67727;50.236;22.452;2024-02-28T01:09:29;57.40;;;28.40;;
78430;SDS011;67727;50.236;22.452;2024-02-28T01:11:56;62.80;;;30.30;;
78430;SDS011;67727;50.236;22.452;2024-02-28T01:14:23;53.10;;;27.90;;
78430;SDS011;67727;50.236;22.452;2024-02-28T01:16:50;54.60;;;28.90;;
78430;SDS011;67727;50.236;22.452;2024-02-28T01:19:18;55.40;;;28.40;;
78430;SDS011;67727;50.236;22.452;2024-02-28T01:21:44;54.90;;;28.20;;
78430;SDS011;67727;50.236;22.452;2024-02-28T01:24:11;56.10;;;29.10;;
78430;SDS011;67727;50.236;22.452;2024-02-28T01:26:38;55.40;;;29.40;;
78430;SDS011;67727;50.236;22.452;2024-02-28T01:29:06;55.00;;;29.10;;
78430;SDS011;67727;50.236;22.452;2024-02-28T01:31:33;61.80;;;26.90;;
78430;SDS011;67727;50.236;22.452;2024-02-28T01:34:00;54.50;;;28.20;;
78430;SDS011;67727;50.236;22.452;2024-02-28T01:36:27;56.20;;;28.90;;
78430;SDS011;67727;50.236;22.452;2024-02-28T01:38:54;58.40;;;29.80;;
78430;SDS011;67727;50.236;22.452;2024-02-28T01:41:20;59.10;;;29.80;;
78430;SDS011;67727;50.236;22.452;2024-02-28T01:43:47;52.80;;;28.10;;
78430;SDS011;67727;50.236;22.452;2024-02-28T01:46:24;57.20;;;26.40;;
78430;SDS011;67727;50.236;22.452;2024-02-28T01:48:53;56.80;;;27.10;;
78430;SDS011;67727;50.236;22.452;2024-02-28T01:51:22;60.50;;;28.00;;
78430;SDS011;67727;50.236;22.452;2024-02-28T01:53:51;55.90;;;28.40;;
78430;SDS011;67727;50.236;22.452;2024-02-28T01:56:19;54.40;;;26.40;;
78430;SDS011;67727;50.236;22.452;2024-02-28T01:58:49;57.50;;;27.60;;
78430;SDS011;67727;50.236;22.452;2024-02-28T02:01:16;55.20;;;28.20;;
78430;SDS011;67727;50.236;22.452;2024-02-28T02:03:44;57.10;;;27.30;;
78430;SDS011;67727;50.236;22.452;2024-02-28T02:06:11;64.00;;;30.50;;
78430;SDS011;67727;50.236;22.452;2024-02-28T02:08:38;55.00;;;27.90;;
78430;SDS011;67727;50.236;22.452;2024-02-28T02:11:07;50.00;;;25.90;;
78430;SDS011;67727;50.236;22.452;2024-02-28T02:13:34;58.70;;;29.20;;
78430;SDS011;67727;50.236;22.452;2024-02-28T02:21:00;53.50;;;26.00;;
78430;SDS011;67727;50.236;22.452;2024-02-28T02:23:31;48.70;;;25.20;;
78430;SDS011;67727;50.236;22.452;2024-02-28T02:25:58;54.40;;;27.30;;
78430;SDS011;67727;50.236;22.452;2024-02-28T02:28:25;49.80;;;25.10;;
78430;SDS011;67727;50.236;22.452;2024-02-28T02:30:52;56.40;;;26.30;;
78430;SDS011;67727;50.236;22.452;2024-02-28T02:33:19;52.20;;;26.50;;
78430;SDS011;67727;50.236;22.452;2024-02-28T02:35:46;55.10;;;28.20;;
78430;SDS011;67727;50.236;22.452;2024-02-28T02:38:13;52.40;;;27.50;;
78430;SDS011;67727;50.236;22.452;2024-02-28T02:40:40;50.30;;;27.00;;
78430;SDS011;67727;50.236;22.452;2024-02-28T02:43:07;51.50;;;27.30;;
78430;SDS011;67727;50.236;22.452;2024-02-28T02:45:34;55.40;;;27.80;;
78430;SDS011;67727;50.236;22.452;2024-02-28T02:48:00;46.50;;;25.30;;
78430;SDS011;67727;50.236;22.452;2024-02-28T02:50:27;47.50;;;24.40;;
78430;SDS011;67727;50.236;22.452;2024-02-28T02:52:54;50.80;;;26.20;;
78430;SDS011;67727;50.236;22.452;2024-02-28T02:55:21;53.00;;;25.50;;
78430;SDS011;67727;50.236;22.452;2024-02-28T02:57:48;50.30;;;25.80;;
78430;SDS011;67727;50.236;22.452;2024-02-28T03:00:15;53.40;;;25.80;;
78430;SDS011;67727;50.236;22.452;2024-02-28T03:02:42;51.00;;;26.50;;
78430;SDS011;67727;50.236;22.452;2024-02-28T03:05:09;48.00;;;25.70;;
78430;SDS011;67727;50.236;22.452;2024-02-28T03:07:36;53.70;;;27.30;;
78430;SDS011;67727;50.236;22.452;2024-02-28T03:10:03;50.50;;;25.30;;
78430;SDS011;67727;50.236;22.452;2024-02-28T03:12:30;53.50;;;26.70;;
78430;SDS011;67727;50.236;22.452;2024-02-28T03:14:58;51.50;;;25.90;;
78430;SDS011;67727;50.236;22.452;2024-02-28T03:17:25;48.40;;;25.30;;
78430;SDS011;67727;50.236;22.452;2024-02-28T03:19:52;51.20;;;24.90;;
78430;SDS011;67727;50.236;22.452;2024-02-28T03:22:19;52.70;;;26.60;;
78430;SDS011;67727;50.236;22.452;2024-02-28T03:24:45;50.80;;;25.30;;
78430;SDS011;67727;50.236;22.452;2024-02-28T03:27:12;49.80;;;24.80;;
78430;SDS011;67727;50.236;22.452;2024-02-28T03:29:39;49.60;;;26.10;;
78430;SDS011;67727;50.236;22.452;2024-02-28T03:32:07;53.20;;;26.10;;
78430;SDS011;67727;50.236;22.452;2024-02-28T03:37:01;46.10;;;22.30;;
78430;SDS011;67727;50.236;22.452;2024-02-28T03:39:28;46.00;;;23.20;;
78430;SDS011;67727;50.236;22.452;2024-02-28T03:41:55;51.30;;;25.80;;
78430;SDS011;67727;50.236;22.452;2024-02-28T03:44:23;47.10;;;24.70;;
78430;SDS011;67727;50.236;22.452;2024-02-28T03:46:52;49.50;;;25.20;;
78430;SDS011;67727;50.236;22.452;2024-02-28T03:49:19;53.20;;;27.00;;
78430;SDS011;67727;50.236;22.452;2024-02-28T03:51:46;51.50;;;25.00;;
78430;SDS011;67727;50.236;22.452;2024-02-28T03:54:13;46.00;;;23.10;;
78430;SDS011;67727;50.236;22.452;2024-02-28T03:56:40;47.50;;;24.40;;
78430;SDS011;67727;50.236;22.452;2024-02-28T03:59:07;49.30;;;23.80;;
78430;SDS011;67727;50.236;22.452;2024-02-28T04:01:34;51.40;;;25.70;;
78430;SDS011;67727;50.236;22.452;2024-02-28T04:04:00;53.70;;;25.00;;
78430;SDS011;67727;50.236;22.452;2024-02-28T04:06:28;47.10;;;23.80;;
78430;SDS011;67727;50.236;22.452;2024-02-28T04:08:56;45.40;;;24.60;;
78430;SDS011;67727;50.236;22.452;2024-02-28T04:11:23;47.20;;;24.10;;
78430;SDS011;67727;50.236;22.452;2024-02-28T04:13:50;38.20;;;20.50;;
78430;SDS011;67727;50.236;22.452;2024-02-28T04:16:17;44.90;;;21.80;;
78430;SDS011;67727;50.236;22.452;2024-02-28T04:18:44;42.70;;;22.60;;
78430;SDS011;67727;50.236;22.452;2024-02-28T04:21:11;46.50;;;23.90;;
78430;SDS011;67727;50.236;22.452;2024-02-28T04:23:38;41.60;;;21.20;;
78430;SDS011;67727;50.236;22.452;2024-02-28T04:26:05;35.10;;;19.00;;
78430;SDS011;67727;50.236;22.452;2024-02-28T04:28:32;43.40;;;21.90;;
78430;SDS011;67727;50.236;22.452;2024-02-28T04:30:59;41.30;;;21.10;;
78430;SDS011;67727;50.236;22.452;2024-02-28T04:33:26;44.00;;;23.00;;
78430;SDS011;67727;50.236;22.452;2024-02-28T04:35:53;40.70;;;20.60;;
78430;SDS011;67727;50.236;22.452;2024-02-28T04:38:20;39.00;;;21.10;;
78430;SDS011;67727;50.236;22.452;2024-02-28T04:40:47;41.90;;;21.10;;
78430;SDS011;67727;50.236;22.452;2024-02-28T04:43:13;42.60;;;21.60;;
78430;SDS011;67727;50.236;22.452;2024-02-28T04:45:40;39.20;;;21.20;;
78430;SDS011;67727;50.236;22.452;2024-02-28T04:48:07;42.40;;;19.90;;
78430;SDS011;67727;50.236;22.452;2024-02-28T04:50:34;44.60;;;23.30;;
78430;SDS011;67727;50.236;22.452;2024-02-28T04:53:01;38.30;;;21.40;;
78430;SDS011;67727;50.236;22.452;2024-02-28T04:55:28;38.00;;;21.10;;
78430;SDS011;67727;50.236;22.452;2024-02-28T04:57:55;43.60;;;22.60;;
78430;SDS011;67727;50.236;22.452;2024-02-28T05:00:23;51.40;;;24.60;;
78430;SDS011;67727;50.236;22.452;2024-02-28T05:02:50;39.90;;;21.10;;
78430;SDS011;67727;50.236;22.452;2024-02-28T05:05:16;42.60;;;19.60;;
78430;SDS011;67727;50.236;22.452;2024-02-28T05:07:43;43.10;;;21.30;;
78430;SDS011;67727;50.236;22.452;2024-02-28T05:10:10;44.30;;;23.10;;
78430;SDS011;67727;50.236;22.452;2024-02-28T05:12:37;42.30;;;21.40;;
78430;SDS011;67727;50.236;22.452;2024-02-28T05:15:05;41.90;;;21.80;;
78430;SDS011;67727;50.236;22.452;2024-02-28T05:17:33;37.20;;;21.00;;
78430;SDS011;67727;50.236;22.452;2024-02-28T05:20:00;43.90;;;18.90;;
78430;SDS011;67727;50.236;22.452;2024-02-28T05:22:27;48.80;;;21.70;;
78430;SDS011;67727;50.236;22.452;2024-02-28T05:24:54;44.10;;;21.50;;
78430;SDS011;67727;50.236;22.452;2024-02-28T05:27:21;48.30;;;22.00;;
78430;SDS011;67727;50.236;22.452;2024-02-28T05:29:48;47.30;;;21.80;;
78430;SDS011;67727;50.236;22.452;2024-02-28T05:32:14;43.80;;;23.80;;
78430;SDS011;67727;50.236;22.452;2024-02-28T05:34:43;46.20;;;23.00;;
78430;SDS011;67727;50.236;22.452;2024-02-28T05:37:12;41.80;;;22.30;;
78430;SDS011;67727;50.236;22.452;2024-02-28T05:39:39;42.60;;;20.60;;
78430;SDS011;67727;50.236;22.452;2024-02-28T05:42:06;39.60;;;21.70;;
78430;SDS011;67727;50.236;22.452;2024-02-28T05:44:34;38.20;;;20.50;;
78430;SDS011;67727;50.236;22.452;2024-02-28T05:47:01;39.50;;;20.90;;
78430;SDS011;67727;50.236;22.452;2024-02-28T05:49:28;41.30;;;20.70;;
78430;SDS011;67727;50.236;22.452;2024-02-28T05:51:55;36.60;;;21.80;;
78430;SDS011;67727;50.236;22.452;2024-02-28T05:54:22;45.00;;;22.40;;
78430;SDS011;67727;50.236;22.452;2024-02-28T05:56:49;43.30;;;22.50;;
78430;SDS011;67727;50.236;22.452;2024-02-28T05:59:16;41.80;;;20.50;;
78430;SDS011;67727;50.236;22.452;2024-02-28T06:01:43;41.30;;;22.70;;
78430;SDS011;67727;50.236;22.452;2024-02-28T06:04:10;45.20;;;22.80;;
78430;SDS011;67727;50.236;22.452;2024-02-28T06:06:37;44.40;;;22.10;;
78430;SDS011;67727;50.236;22.452;2024-02-28T06:09:04;42.00;;;22.20;;
78430;SDS011;67727;50.236;22.452;2024-02-28T06:11:32;43.70;;;21.80;;
78430;SDS011;67727;50.236;22.452;2024-02-28T06:14:00;44.80;;;23.40;;
78430;SDS011;67727;50.236;22.452;2024-02-28T06:16:27;41.90;;;22.40;;
78430;SDS011;67727;50.236;22.452;2024-02-28T06:18:54;35.90;;;19.20;;
78430;SDS011;67727;50.236;22.452;2024-02-28T06:21:24;43.50;;;23.20;;
78430;SDS011;67727;50.236;22.452;2024-02-28T06:23:51;43.10;;;21.80;;
78430;SDS011;67727;50.236;22.452;2024-02-28T06:26:18;45.50;;;23.60;;
78430;SDS011;67727;50.236;22.452;2024-02-28T06:28:45;44.90;;;22.70;;
78430;SDS011;67727;50.236;22.452;2024-02-28T06:31:15;40.10;;;22.10;;
78430;SDS011;67727;50.236;22.452;2024-02-28T06:33:43;42.20;;;21.90;;
78430;SDS011;67727;50.236;22.452;2024-02-28T06:36:11;43.30;;;22.30;;
78430;SDS011;67727;50.236;22.452;2024-02-28T06:38:38;46.00;;;21.90;;
78430;SDS011;67727;50.236;22.452;2024-02-28T06:41:05;41.50;;;22.10;;
78430;SDS011;67727;50.236;22.452;2024-02-28T06:43:35;41.10;;;20.70;;
78430;SDS011;67727;50.236;22.452;2024-02-28T06:46:02;42.00;;;19.80;;
78430;SDS011;67727;50.236;22.452;2024-02-28T06:48:29;39.20;;;21.20;;
78430;SDS011;67727;50.236;22.452;2024-02-28T06:50:56;43.50;;;21.90;;
78430;SDS011;67727;50.236;22.452;2024-02-28T06:53:24;45.50;;;21.80;;
78430;SDS011;67727;50.236;22.452;2024-02-28T06:55:52;41.00;;;19.50;;
78430;SDS011;67727;50.236;22.452;2024-02-28T06:58:20;34.00;;;19.30;;
78430;SDS011;67727;50.236;22.452;2024-02-28T07:00:48;38.30;;;18.80;;
78430;SDS011;67727;50.236;22.452;2024-02-28T07:03:15;44.30;;;22.00;;
78430;SDS011;67727;50.236;22.452;2024-02-28T07:05:42;37.00;;;20.60;;
78430;SDS011;67727;50.236;22.452;2024-02-28T07:08:09;45.40;;;22.00;;
78430;SDS011;67727;50.236;22.452;2024-02-28T07:10:38;44.90;;;23.40;;
78430;SDS011;67727;50.236;22.452;2024-02-28T07:13:09;42.90;;;22.60;;
78430;SDS011;67727;50.236;22.452;2024-02-28T07:15:37;40.30;;;22.10;;
78430;SDS011;67727;50.236;22.452;2024-02-28T07:18:05;40.40;;;20.60;;
78430;SDS011;67727;50.236;22.452;2024-02-28T07:20:32;40.40;;;22.90;;
78430;SDS011;67727;50.236;22.452;2024-02-28T07:23:00;42.40;;;23.20;;
78430;SDS011;67727;50.236;22.452;2024-02-28T07:25:27;39.90;;;21.90;;
78430;SDS011;67727;50.236;22.452;2024-02-28T07:27:54;41.40;;;19.80;;
78430;SDS011;67727;50.236;22.452;2024-02-28T07:30:23;38.50;;;20.50;;
78430;SDS011;67727;50.236;22.452;2024-02-28T07:32:50;40.90;;;21.70;;
78430;SDS011;67727;50.236;22.452;2024-02-28T07:35:17;46.70;;;22.80;;
78430;SDS011;67727;50.236;22.452;2024-02-28T07:37:45;42.30;;;22.90;;
78430;SDS011;67727;50.236;22.452;2024-02-28T07:40:13;45.60;;;22.90;;
78430;SDS011;67727;50.236;22.452;2024-02-28T07:42:40;41.00;;;21.60;;
78430;SDS011;67727;50.236;22.452;2024-02-28T07:45:07;35.40;;;21.70;;
78430;SDS011;67727;50.236;22.452;2024-02-28T07:47:35;40.50;;;19.30;;
78430;SDS011;67727;50.236;22.452;2024-02-28T07:50:02;40.30;;;21.40;;
78430;SDS011;67727;50.236;22.452;2024-02-28T07:52:28;34.20;;;18.20;;
78430;SDS011;67727;50.236;22.452;2024-02-28T07:54:55;36.30;;;20.00;;
78430;SDS011;67727;50.236;22.452;2024-02-28T07:57:22;37.20;;;20.20;;
78430;SDS011;67727;50.236;22.452;2024-02-28T07:59:49;32.20;;;18.30;;
78430;SDS011;67727;50.236;22.452;2024-02-28T08:02:16;35.10;;;19.70;;
78430;SDS011;67727;50.236;22.452;2024-02-28T08:04:46;41.20;;;19.80;;
78430;SDS011;67727;50.236;22.452;2024-02-28T08:07:13;38.60;;;20.70;;
78430;SDS011;67727;50.236;22.452;2024-02-28T08:09:40;34.30;;;18.50;;
78430;SDS011;67727;50.236;22.452;2024-02-28T08:12:07;38.00;;;20.10;;
78430;SDS011;67727;50.236;22.452;2024-02-28T08:14:34;38.60;;;21.40;;
78430;SDS011;67727;50.236;22.452;2024-02-28T08:17:00;31.20;;;18.10;;
78430;SDS011;67727;50.236;22.452;2024-02-28T08:19:28;35.10;;;20.20;;
78430;SDS011;67727;50.236;22.452;2024-02-28T08:21:54;30.80;;;18.00;;
78430;SDS011;67727;50.236;22.452;2024-02-28T08:24:21;39.70;;;20.90;;
78430;SDS011;67727;50.236;22.452;2024-02-28T08:26:48;37.40;;;18.20;;
78430;SDS011;67727;50.236;22.452;2024-02-28T08:29:15;34.30;;;20.00;;
78430;SDS011;67727;50.236;22.452;2024-02-28T08:31:43;34.80;;;19.90;;
78430;SDS011;67727;50.236;22.452;2024-02-28T08:34:10;32.80;;;19.40;;
78430;SDS011;67727;50.236;22.452;2024-02-28T08:36:37;35.00;;;18.70;;
78430;SDS011;67727;50.236;22.452;2024-02-28T08:39:04;38.40;;;18.50;;
78430;SDS011;67727;50.236;22.452;2024-02-28T08:41:33;35.20;;;19.60;;
78430;SDS011;67727;50.236;22.452;2024-02-28T08:44:00;31.90;;;18.60;;
78430;SDS011;67727;50.236;22.452;2024-02-28T08:46:28;33.50;;;18.20;;
78430;SDS011;67727;50.236;22.452;2024-02-28T08:48:55;33.50;;;18.40;;
78430;SDS011;67727;50.236;22.452;2024-02-28T08:51:22;43.30;;;25.50;;
78430;SDS011;67727;50.236;22.452;2024-02-28T08:53:49;48.20;;;22.40;;
78430;SDS011;67727;50.236;22.452;2024-02-28T08:56:16;40.20;;;20.60;;
78430;SDS011;67727;50.236;22.452;2024-02-28T08:58:43;35.40;;;20.50;;
78430;SDS011;67727;50.236;22.452;2024-02-28T09:01:14;32.70;;;19.50;;
78430;SDS011;67727;50.236;22.452;2024-02-28T09:03:42;34.10;;;18.50;;
78430;SDS011;67727;50.236;22.452;2024-02-28T09:06:09;35.20;;;20.50;;
78430;SDS011;67727;50.236;22.452;2024-02-28T09:08:36;34.90;;;20.20;;
78430;SDS011;67727;50.236;22.452;2024-02-28T09:11:03;33.20;;;19.30;;
78430;SDS011;67727;50.236;22.452;2024-02-28T09:13:31;38.80;;;21.70;;
78430;SDS011;67727;50.236;22.452;2024-02-28T09:15:58;36.40;;;19.80;;
78430;SDS011;67727;50.236;22.452;2024-02-28T09:18:25;34.50;;;19.10;;
78430;SDS011;67727;50.236;22.452;2024-02-28T09:20:52;36.70;;;20.90;;
78430;SDS011;67727;50.236;22.452;2024-02-28T09:23:19;39.10;;;22.00;;
78430;SDS011;67727;50.236;22.452;2024-02-28T09:25:47;39.30;;;22.10;;
78430;SDS011;67727;50.236;22.452;2024-02-28T09:28:14;37.20;;;21.30;;
78430;SDS011;67727;50.236;22.452;2024-02-28T09:30:42;42.80;;;22.90;;
78430;SDS011;67727;50.236;22.452;2024-02-28T09:33:09;44.40;;;24.20;;
78430;SDS011;67727;50.236;22.452;2024-02-28T09:35:36;36.40;;;20.50;;
78430;SDS011;67727;50.236;22.452;2024-02-28T09:38:03;39.10;;;20.50;;
78430;SDS011;67727;50.236;22.452;2024-02-28T09:40:30;34.90;;;19.40;;
78430;SDS011;67727;50.236;22.452;2024-02-28T09:43:00;36.60;;;21.20;;
78430;SDS011;67727;50.236;22.452;2024-02-28T09:45:30;39.20;;;22.80;;
78430;SDS011;67727;50.236;22.452;2024-02-28T09:47:59;33.10;;;19.70;;
78430;SDS011;67727;50.236;22.452;2024-02-28T09:50:27;41.80;;;23.30;;
78430;SDS011;67727;50.236;22.452;2024-02-28T09:52:54;51.80;;;27.20;;
78430;SDS011;67727;50.236;22.452;2024-02-28T09:55:21;45.50;;;22.90;;
78430;SDS011;67727;50.236;22.452;2024-02-28T09:57:48;36.10;;;19.70;;
78430;SDS011;67727;50.236;22.452;2024-02-28T10:00:18;34.40;;;20.70;;
78430;SDS011;67727;50.236;22.452;2024-02-28T10:02:48;43.00;;;21.40;;
78430;SDS011;67727;50.236;22.452;2024-02-28T10:05:17;38.50;;;22.70;;
78430;SDS011;67727;50.236;22.452;2024-02-28T10:10:13;41.60;;;22.60;;
78430;SDS011;67727;50.236;22.452;2024-02-28T10:12:40;42.50;;;22.10;;
78430;SDS011;67727;50.236;22.452;2024-02-28T10:15:09;42.70;;;21.60;;
78430;SDS011;67727;50.236;22.452;2024-02-28T10:17:37;51.90;;;25.20;;
78430;SDS011;67727;50.236;22.452;2024-02-28T10:20:04;64.30;;;27.60;;
78430;SDS011;67727;50.236;22.452;2024-02-28T10:22:35;62.40;;;28.90;;
78430;SDS011;67727;50.236;22.452;2024-02-28T10:25:03;68.20;;;28.10;;
78430;SDS011;67727;50.236;22.452;2024-02-28T10:30:01;50.50;;;25.60;;
78430;SDS011;67727;50.236;22.452;2024-02-28T10:32:32;51.70;;;26.00;;
78430;SDS011;67727;50.236;22.452;2024-02-28T10:35:03;49.60;;;25.00;;
78430;SDS011;67727;50.236;22.452;2024-02-28T10:37:32;49.90;;;24.70;;
78430;SDS011;67727;50.236;22.452;2024-02-28T10:39:59;52.10;;;26.50;;
78430;SDS011;67727;50.236;22.452;2024-02-28T10:42:27;49.30;;;27.10;;
78430;SDS011;67727;50.236;22.452;2024-02-28T10:44:57;50.00;;;25.60;;
78430;SDS011;67727;50.236;22.452;2024-02-28T10:47:26;44.80;;;22.30;;
78430;SDS011;67727;50.236;22.452;2024-02-28T10:49:54;44.80;;;22.70;;
78430;SDS011;67727;50.236;22.452;2024-02-28T10:52:22;41.70;;;23.00;;
78430;SDS011;67727;50.236;22.452;2024-02-28T10:54:54;37.20;;;22.20;;
78430;SDS011;67727;50.236;22.452;2024-02-28T10:57:23;39.40;;;22.90;;
78430;SDS011;67727;50.236;22.452;2024-02-28T10:59:52;36.50;;;22.00;;
78430;SDS011;67727;50.236;22.452;2024-02-28T11:02:21;35.10;;;21.60;;
78430;SDS011;67727;50.236;22.452;2024-02-28T11:04:53;39.90;;;23.20;;
78430;SDS011;67727;50.236;22.452;2024-02-28T11:07:20;41.90;;;24.00;;
78430;SDS011;67727;50.236;22.452;2024-02-28T11:09:53;39.00;;;21.10;;
78430;SDS011;67727;50.236;22.452;2024-02-28T11:12:24;43.70;;;23.40;;
78430;SDS011;67727;50.236;22.452;2024-02-28T11:14:57;37.60;;;19.80;;
78430;SDS011;67727;50.236;22.452;2024-02-28T11:17:27;40.80;;;21.50;;
78430;SDS011;67727;50.236;22.452;2024-02-28T11:19:55;41.00;;;22.30;;
78430;SDS011;67727;50.236;22.452;2024-02-28T11:22:22;33.90;;;21.10;;
78430;SDS011;67727;50.236;22.452;2024-02-28T11:24:53;39.00;;;21.80;;
78430;SDS011;67727;50.236;22.452;2024-02-28T11:27:20;41.90;;;23.70;;
78430;SDS011;67727;50.236;22.452;2024-02-28T11:29:48;36.90;;;22.80;;
78430;SDS011;67727;50.236;22.452;2024-02-28T11:32:16;43.90;;;22.70;;
78430;SDS011;67727;50.236;22.452;2024-02-28T11:37:11;36.00;;;21.20;;
78430;SDS011;67727;50.236;22.452;2024-02-28T11:39:38;39.30;;;21.40;;
78430;SDS011;67727;50.236;22.452;2024-02-28T11:42:15;42.90;;;23.90;;
78430;SDS011;67727;50.236;22.452;2024-02-28T11:44:42;34.40;;;20.20;;
78430;SDS011;67727;50.236;22.452;2024-02-28T11:47:10;32.30;;;19.10;;
78430;SDS011;67727;50.236;22.452;2024-02-28T11:49:37;33.70;;;20.60;;
78430;SDS011;67727;50.236;22.452;2024-02-28T11:54:32;36.10;;;21.20;;
78430;SDS011;67727;50.236;22.452;2024-02-28T11:56:59;29.30;;;17.30;;
78430;SDS011;67727;50.236;22.452;2024-02-28T11:59:25;21.60;;;12.40;;
78430;SDS011;67727;50.236;22.452;2024-02-28T12:01:53;19.10;;;9.40;;
78430;SDS011;67727;50.236;22.452;2024-02-28T12:04:23;18.70;;;9.70;;
78430;SDS011;67727;50.236;22.452;2024-02-28T12:06:51;15.30;;;8.90;;
78430;SDS011;67727;50.236;22.452;2024-02-28T12:09:18;16.70;;;9.50;;
78430;SDS011;67727;50.236;22.452;2024-02-28T12:11:46;17.30;;;8.60;;
78430;SDS011;67727;50.236;22.452;2024-02-28T12:14:13;18.60;;;9.00;;
78430;SDS011;67727;50.236;22.452;2024-02-28T12:16:39;17.20;;;9.50;;
78430;SDS011;67727;50.236;22.452;2024-02-28T12:19:10;16.60;;;9.10;;
78430;SDS011;67727;50.236;22.452;2024-02-28T12:21:38;16.10;;;8.70;;
78430;SDS011;67727;50.236;22.452;2024-02-28T12:24:09;14.80;;;9.20;;
78430;SDS011;67727;50.236;22.452;2024-02-28T12:26:37;13.20;;;9.00;;
78430;SDS011;67727;50.236;22.452;2024-02-28T12:29:05;15.30;;;9.60;;
78430;SDS011;67727;50.236;22.452;2024-02-28T12:31:33;18.50;;;9.50;;
78430;SDS011;67727;50.236;22.452;2024-02-28T12:34:00;14.70;;;9.00;;
78430;SDS011;67727;50.236;22.452;2024-02-28T12:36:27;15.80;;;9.00;;
78430;SDS011;67727;50.236;22.452;2024-02-28T12:38:54;16.20;;;9.20;;
78430;SDS011;67727;50.236;22.452;2024-02-28T12:41:20;20.70;;;10.30;;
78430;SDS011;67727;50.236;22.452;2024-02-28T12:43:48;17.20;;;9.50;;
78430;SDS011;67727;50.236;22.452;2024-02-28T12:46:14;18.40;;;9.40;;
78430;SDS011;67727;50.236;22.452;2024-02-28T12:48:41;18.20;;;10.00;;
78430;SDS011;67727;50.236;22.452;2024-02-28T12:51:10;16.30;;;10.00;;
78430;SDS011;67727;50.236;22.452;2024-02-28T12:53:40;16.40;;;9.30;;
78430;SDS011;67727;50.236;22.452;2024-02-28T12:56:07;17.30;;;10.00;;
78430;SDS011;67727;50.236;22.452;2024-02-28T12:58:34;17.60;;;9.90;;
78430;SDS011;67727;50.236;22.452;2024-02-28T13:01:00;16.70;;;9.90;;
78430;SDS011;67727;50.236;22.452;2024-02-28T13:03:28;16.80;;;10.60;;
78430;SDS011;67727;50.236;22.452;2024-02-28T13:05:54;21.40;;;11.00;;
78430;SDS011;67727;50.236;22.452;2024-02-28T13:08:21;17.80;;;10.90;;
78430;SDS011;67727;50.236;22.452;2024-02-28T13:10:48;19.20;;;10.50;;
78430;SDS011;67727;50.236;22.452;2024-02-28T13:13:15;20.30;;;11.70;;
78430;SDS011;67727;50.236;22.452;2024-02-28T13:15:42;19.30;;;11.50;;
78430;SDS011;67727;50.236;22.452;2024-02-28T13:18:11;17.10;;;10.10;;
78430;SDS011;67727;50.236;22.452;2024-02-28T13:20:38;18.40;;;9.00;;
78430;SDS011;67727;50.236;22.452;2024-02-28T13:23:06;14.90;;;9.00;;
78430;SDS011;67727;50.236;22.452;2024-02-28T13:25:34;17.50;;;9.40;;
78430;SDS011;67727;50.236;22.452;2024-02-28T13:28:01;17.50;;;9.30;;
78430;SDS011;67727;50.236;22.452;2024-02-28T13:30:27;16.90;;;9.70;;
78430;SDS011;67727;50.236;22.452;2024-02-28T13:32:54;19.40;;;10.20;;
78430;SDS011;67727;50.236;22.452;2024-02-28T13:35:21;21.70;;;11.90;;
78430;SDS011;67727;50.236;22.452;2024-02-28T13:37:48;21.00;;;10.60;;
78430;SDS011;67727;50.236;22.452;2024-02-28T13:40:15;21.80;;;11.70;;
78430;SDS011;67727;50.236;22.452;2024-02-28T13:42:42;24.30;;;13.50;;
78430;SDS011;67727;50.236;22.452;2024-02-28T13:45:11;27.40;;;13.90;;
78430;SDS011;67727;50.236;22.452;2024-02-28T13:47:38;29.90;;;13.70;;
78430;SDS011;67727;50.236;22.452;2024-02-28T13:50:05;22.90;;;12.50;;
78430;SDS011;67727;50.236;22.452;2024-02-28T13:52:33;22.20;;;13.50;;
78430;SDS011;67727;50.236;22.452;2024-02-28T13:54:59;19.40;;;12.10;;
78430;SDS011;67727;50.236;22.452;2024-02-28T13:57:26;27.90;;;14.30;;
78430;SDS011;67727;50.236;22.452;2024-02-28T13:59:53;26.60;;;12.70;;
78430;SDS011;67727;50.236;22.452;2024-02-28T14:02:21;21.30;;;10.90;;
78430;SDS011;67727;50.236;22.452;2024-02-28T14:04:53;20.10;;;10.00;;
78430;SDS011;67727;50.236;22.452;2024-02-28T14:07:21;22.60;;;11.80;;
78430;SDS011;67727;50.236;22.452;2024-02-28T14:09:48;42.90;;;17.00;;
78430;SDS011;67727;50.236;22.452;2024-02-28T14:12:15;54.80;;;24.00;;
78430;SDS011;67727;50.236;22.452;2024-02-28T14:14:42;48.70;;;20.90;;
78430;SDS011;67727;50.236;22.452;2024-02-28T14:17:09;45.90;;;19.50;;
78430;SDS011;67727;50.236;22.452;2024-02-28T14:19:36;28.20;;;14.40;;
78430;SDS011;67727;50.236;22.452;2024-02-28T14:22:03;21.30;;;10.60;;
78430;SDS011;67727;50.236;22.452;2024-02-28T14:24:30;19.80;;;9.50;;
78430;SDS011;67727;50.236;22.452;2024-02-28T14:26:58;16.50;;;8.60;;
78430;SDS011;67727;50.236;22.452;2024-02-28T14:29:24;20.30;;;10.20;;
78430;SDS011;67727;50.236;22.452;2024-02-28T14:31:51;18.90;;;9.00;;